Time;durP1;ratioP1;P1;durP2;ratioP2;P2;SDS_P1;SDS_P2;PMS_P1;PMS_P2;Temp;Humidity;BMP_temperature;BMP_pressure;BME280_temperature;BME280_humidity;BME280_pressure;Samples;Min_cycle;Max_cycle;Signal;HPM_P1;HPM_P2
2022/10/17 00:00:57;;;;;;;8.82;4.25;;;;;;;10.97;100.00;99770.66;5172544;27;20050;-50
2022/10/17 00:03:23;;;;;;;6.68;4.13;;;;;;;11.32;100.00;99855.06;5172681;27;20504;-50
2022/10/17 00:05:50;;;;;;;10.35;4.32;;;;;;;10.97;100.00;99929.78;5172501;27;20050;-50
2022/10/17 00:08:17;;;;;;;10.00;4.72;;;;;;;10.80;100.00;100032.38;5172374;27;20472;-50
2022/10/17 00:10:44;;;;;;;8.50;3.88;;;;;;;10.86;100.00;100092.47;5172320;27;20138;-50
2022/10/17 00:13:11;;;;;;;7.95;4.55;;;;;;;11.14;100.00;100137.25;5172440;27;20054;-53
2022/10/17 00:15:38;;;;;;;7.93;4.35;;;;;;;11.01;100.00;100100.00;5172478;27;20462;-49
2022/10/17 00:18:04;;;;;;;10.77;4.85;;;;;;;11.05;100.00;100128.34;5172275;27;20052;-49
2022/10/17 00:20:33;;;;;;;9.02;4.80;;;;;;;11.18;100.00;100137.38;5172572;27;20086;-50
2022/10/17 00:23:00;;;;;;;13.27;4.40;;;;;;;11.12;100.00;100122.28;5171614;27;20052;-50
2022/10/17 00:25:26;;;;;;;9.13;4.72;;;;;;;10.86;100.00;100167.31;5172651;27;20489;-49
2022/10/17 00:27:52;;;;;;;9.70;5.18;;;;;;;10.89;100.00;100226.19;5172046;27;20052;-53
2022/10/17 00:30:18;;;;;;;11.18;5.00;;;;;;;11.15;100.00;100225.88;5172401;27;20042;-49
2022/10/17 00:32:45;;;;;;;7.65;4.75;;;;;;;11.20;100.00;100229.22;5172022;27;20057;-50
2022/10/17 00:35:12;;;;;;;9.32;4.97;;;;;;;11.03;100.00;100208.28;5172064;27;20486;-49
2022/10/17 00:37:38;;;;;;;11.38;4.70;;;;;;;11.04;100.00;100211.81;5172107;27;20421;-49
2022/10/17 00:40:06;;;;;;;12.45;4.80;;;;;;;11.05;100.00;100222.44;5172000;27;20053;-49
2022/10/17 00:42:32;;;;;;;10.05;5.20;;;;;;;11.26;100.00;100199.56;5172255;27;20489;-50
2022/10/17 00:45:11;;;;;;;11.65;5.20;;;;;;;11.07;100.00;100191.94;5171874;27;20054;-49
2022/10/17 00:47:38;;;;;;;10.55;5.20;;;;;;;10.90;100.00;100176.50;5171995;27;20074;-49
2022/10/17 00:50:06;;;;;;;14.68;4.82;;;;;;;11.17;100.00;100155.78;5171763;27;20091;-52
2022/10/17 00:52:33;;;;;;;9.63;5.03;;;;;;;11.18;100.00;100162.06;5172229;27;20050;-50
2022/10/17 00:55:08;;;;;;;8.13;4.85;;;;;;;10.85;100.00;100152.00;5171713;27;20054;-51
2022/10/17 00:57:35;;;;;;;9.88;5.43;;;;;;;10.71;100.00;100152.34;5171972;27;20050;-49
2022/10/17 01:00:06;;;;;;;9.10;4.72;;;;;;;10.97;100.00;100187.69;5171788;27;20493;-51
2022/10/17 01:02:33;;;;;;;7.90;4.78;;;;;;;11.09;100.00;100162.19;5171611;27;20081;-51
2022/10/17 01:04:59;;;;;;;6.10;4.30;;;;;;;11.27;100.00;100127.88;5171895;27;20562;-50
2022/10/17 01:07:27;;;;;;;7.95;4.65;;;;;;;10.91;100.00;100125.16;5171841;27;20102;-51
2022/10/17 01:09:54;;;;;;;11.25;4.95;;;;;;;11.32;100.00;100151.53;5172002;27;20070;-52
2022/10/17 01:12:23;;;;;;;17.50;5.10;;;;;;;11.48;100.00;100070.03;5171435;27;20505;-51
2022/10/17 01:15:03;;;;;;;9.30;4.93;;;;;;;10.81;100.00;100049.63;5171739;27;20057;-54
2022/10/17 01:17:37;;;;;;;8.77;4.75;;;;;;;11.12;100.00;100146.97;5171549;27;20050;-51
2022/10/17 01:20:40;;;;;;;12.93;4.60;;;;;;;11.05;100.00;100115.41;5171542;27;20042;-52
2022/10/17 01:23:31;;;;;;;7.97;5.03;;;;;;;10.71;100.00;100149.59;5171705;27;20052;-53
2022/10/17 01:26:06;;;;;;;11.73;4.72;;;;;;;11.06;100.00;100176.59;5168045;27;20538;-53
2022/10/17 01:28:57;;;;;;;13.57;5.30;;;;;;;11.35;100.00;100137.09;5171641;27;20050;-49
2022/10/17 01:31:27;;;;;;;10.73;5.28;;;;;;;11.53;100.00;100064.31;5171318;27;21021;-50
2022/10/17 01:34:03;;;;;;;10.38;4.97;;;;;;;11.46;100.00;100042.16;5171943;27;20490;-51
2022/10/17 01:36:39;;;;;;;12.65;6.45;;;;;;;11.20;100.00;100071.97;5174906;27;20081;-51
2022/10/17 01:39:14;;;;;;;7.65;4.90;;;;;;;11.29;100.00;100087.13;5174848;27;20081;-52
2022/10/17 01:41:46;;;;;;;8.88;5.00;;;;;;;11.38;100.00;100094.44;5175144;27;20539;-52
2022/10/17 01:44:20;;;;;;;11.85;5.32;;;;;;;11.34;100.00;100086.09;5175030;27;20106;-49
2022/10/17 01:46:50;;;;;;;15.40;6.22;;;;;;;11.19;100.00;100093.09;5175080;27;20046;-50
2022/10/17 01:49:20;;;;;;;11.48;5.95;;;;;;;11.28;100.00;100038.88;5174803;27;20424;-53
2022/10/17 01:51:49;;;;;;;12.75;7.13;;;;;;;11.02;100.00;100094.16;5174946;27;20092;-52
2022/10/17 01:54:22;;;;;;;16.20;8.05;;;;;;;11.15;100.00;100108.66;5174656;27;20136;-50
2022/10/17 01:56:54;;;;;;;14.48;7.50;;;;;;;11.03;100.00;100112.25;5174529;27;20046;-50
2022/10/17 01:59:25;;;;;;;16.35;7.60;;;;;;;10.97;100.00;100135.56;5174602;27;20050;-53
2022/10/17 02:01:54;;;;;;;18.98;8.85;;;;;;;11.43;100.00;100149.09;5174518;27;20050;-52
2022/10/17 02:04:21;;;;;;;15.02;8.40;;;;;;;11.68;100.00;100035.28;5174754;27;20096;-51
2022/10/17 02:06:48;;;;;;;22.08;8.88;;;;;;;11.55;100.00;99952.16;5174547;27;20105;-51
2022/10/17 02:09:19;;;;;;;20.20;10.50;;;;;;;11.43;100.00;99987.09;5174841;27;20420;-50
2022/10/17 02:11:59;;;;;;;18.55;10.05;;;;;;;11.31;100.00;99998.94;5174468;27;20046;-50
2022/10/17 02:14:36;;;;;;;24.00;7.63;;;;;;;11.63;100.00;99969.63;5174202;27;20054;-52
2022/10/17 02:17:13;;;;;;;11.32;6.82;;;;;;;11.34;100.00;99972.75;5174540;27;20462;-52
2022/10/17 02:19:50;;;;;;;12.85;6.53;;;;;;;11.06;100.00;100047.63;5174098;27;20458;-49
2022/10/17 02:22:24;;;;;;;18.08;6.60;;;;;;;11.31;100.00;100051.91;5174352;27;20046;-49
2022/10/17 02:24:57;;;;;;;15.90;7.13;;;;;;;11.29;100.00;100032.22;5174097;27;20130;-51
2022/10/17 02:27:33;;;;;;;13.90;5.75;;;;;;;11.13;100.00;100006.69;5174120;27;20046;-50
2022/10/17 02:30:05;;;;;;;13.65;5.63;;;;;;;11.28;100.00;100035.34;5174106;27;20046;-50
2022/10/17 02:32:38;;;;;;;9.80;5.40;;;;;;;11.50;100.00;100021.06;5174223;27;20072;-53
2022/10/17 02:35:08;;;;;;;13.55;5.63;;;;;;;11.38;100.00;100042.28;5174065;27;20061;-50
2022/10/17 02:37:35;;;;;;;15.68;6.07;;;;;;;11.22;100.00;100058.69;5173842;27;20050;-51
2022/10/17 02:40:04;;;;;;;12.38;4.97;;;;;;;11.54;100.00;100060.41;5174207;27;20050;-49
2022/10/17 02:42:32;;;;;;;9.27;4.78;;;;;;;11.32;100.00;100009.56;5174025;27;20452;-53
2022/10/17 02:45:01;;;;;;;9.85;4.88;;;;;;;10.98;100.00;100027.41;5173999;27;20114;-50
2022/10/17 02:47:39;;;;;;;9.20;5.35;;;;;;;11.11;100.00;100072.09;5173986;27;20557;-52
2022/10/17 02:50:07;;;;;;;5.95;4.47;;;;;;;10.93;100.00;100109.13;5173779;27;20050;-50
2022/10/17 02:52:39;;;;;;;9.85;5.05;;;;;;;11.46;100.00;100080.59;5173648;27;20057;-50
2022/10/17 02:55:11;;;;;;;10.88;5.40;;;;;;;11.23;100.00;100052.03;5173610;27;20081;-49
2022/10/17 02:57:40;;;;;;;10.63;4.85;;;;;;;11.43;100.00;100059.31;5173700;27;20134;-49
2022/10/17 03:00:10;;;;;;;16.67;5.05;;;;;;;11.16;100.00;100047.16;5173521;27;20046;-49
2022/10/17 03:02:39;;;;;;;7.25;4.97;;;;;;;11.12;100.00;100103.06;5173441;27;20505;-50
2022/10/17 03:05:07;;;;;;;10.15;5.35;;;;;;;11.32;100.00;100048.00;5173550;27;20053;-51
2022/10/17 03:07:34;;;;;;;7.68;4.70;;;;;;;11.60;100.00;100041.75;5173805;27;20077;-50
2022/10/17 03:10:00;;;;;;;10.27;4.97;;;;;;;11.48;100.00;100028.84;5173461;27;20042;-50
2022/10/17 03:12:26;;;;;;;12.18;5.32;;;;;;;11.45;100.00;100010.31;5173453;27;20046;-49
2022/10/17 03:14:52;;;;;;;18.70;5.57;;;;;;;11.61;100.00;100023.31;5173188;27;20057;-49
2022/10/17 03:17:19;;;;;;;10.07;5.30;;;;;;;11.34;100.00;100066.09;5173313;27;20050;-49
2022/10/17 03:19:45;;;;;;;10.13;5.28;;;;;;;11.49;100.00;100048.88;5173324;27;20090;-49
2022/10/17 03:22:12;;;;;;;11.38;5.53;;;;;;;11.61;100.00;100017.81;5173123;27;20052;-50
2022/10/17 03:24:38;;;;;;;12.20;5.22;;;;;;;11.67;100.00;99994.44;5173429;27;20104;-50
2022/10/17 03:27:04;;;;;;;12.80;6.53;;;;;;;11.85;100.00;99896.81;5173135;27;20486;-53
2022/10/17 03:29:31;;;;;;;16.17;5.30;;;;;;;11.84;100.00;99842.22;5173151;27;20500;-52
2022/10/17 03:31:57;;;;;;;7.65;5.15;;;;;;;12.05;100.00;99848.22;5172854;27;20074;-49
2022/10/17 03:34:23;;;;;;;13.43;6.07;;;;;;;11.91;100.00;99850.66;5173378;27;20519;-50
2022/10/17 03:36:49;;;;;;;15.32;6.72;;;;;;;12.03;100.00;99853.28;5173029;27;20050;-52
2022/10/17 03:39:16;;;;;;;12.50;6.20;;;;;;;11.76;100.00;99877.75;5173222;27;20505;-51
2022/10/17 03:41:42;;;;;;;16.48;6.25;;;;;;;12.03;100.00;99897.25;5172816;27;20050;-51
2022/10/17 03:44:09;;;;;;;12.80;6.43;;;;;;;11.58;100.00;99851.78;5172980;27;20042;-52
2022/10/17 03:46:35;;;;;;;15.75;7.90;;;;;;;11.72;100.00;99977.69;5173266;27;20073;-53
2022/10/17 03:49:01;;;;;;;25.58;7.57;;;;;;;11.85;100.00;99959.22;5172702;27;20050;-53
2022/10/17 03:51:28;;;;;;;13.65;7.70;;;;;;;11.92;100.00;99937.41;5173020;27;20888;-50
2022/10/17 03:53:54;;;;;;;19.50;8.65;;;;;;;11.97;100.00;99946.19;5172785;27;20489;-53
2022/10/17 03:56:23;;;;;;;16.92;9.15;;;;;;;11.72;100.00;99922.75;5172601;27;20142;-50
2022/10/17 03:58:49;;;;;;;15.18;8.15;;;;;;;12.14;100.00;99933.25;5172594;27;20061;-53
2022/10/17 04:01:17;;;;;;;18.20;7.20;;;;;;;12.09;100.00;99944.50;5173226;27;20074;-51
2022/10/17 04:03:47;;;;;;;18.05;7.32;;;;;;;12.12;100.00;99930.84;5172553;27;20050;-53
2022/10/17 04:06:13;;;;;;;15.25;7.00;;;;;;;12.11;100.00;99951.22;5172821;27;20524;-52
2022/10/17 04:08:41;;;;;;;14.27;7.28;;;;;;;12.05;100.00;99938.91;5172480;27;20057;-52
2022/10/17 04:11:10;;;;;;;18.80;7.55;;;;;;;12.07;100.00;99969.59;5172491;27;20073;-53
2022/10/17 04:13:37;;;;;;;17.17;7.22;;;;;;;11.76;100.00;99995.88;5172508;27;20082;-53
2022/10/17 04:16:05;;;;;;;11.13;7.15;;;;;;;11.70;100.00;100029.44;5172331;27;20501;-49
2022/10/17 04:18:31;;;;;;;14.93;7.47;;;;;;;11.93;100.00;100074.47;5172467;27;20134;-52
2022/10/17 04:21:00;;;;;;;20.63;7.75;;;;;;;12.06;100.00;100035.91;5172241;27;20102;-52
2022/10/17 04:23:26;;;;;;;14.55;7.20;;;;;;;11.94;100.00;100094.50;5172330;27;20090;-50
2022/10/17 04:25:56;;;;;;;22.65;8.73;;;;;;;11.47;100.00;100112.38;5172063;27;20053;-51
2022/10/17 04:28:22;;;;;;;23.02;8.55;;;;;;;11.47;100.00;100164.56;5172559;27;20114;-50
2022/10/17 04:30:55;;;;;;;20.70;11.65;;;;;;;11.66;100.00;100177.69;5172144;27;20047;-49
2022/10/17 04:33:21;;;;;;;36.20;13.73;;;;;;;11.74;100.00;100173.97;5172328;27;20085;-50
2022/10/17 04:35:55;;;;;;;23.30;14.93;;;;;;;11.85;100.00;100135.84;5171903;27;20088;-52
2022/10/17 04:38:21;;;;;;;28.48;16.20;;;;;;;11.57;100.00;100140.50;5172215;27;20218;-50
2022/10/17 04:40:47;;;;;;;29.83;16.17;;;;;;;11.61;100.00;100183.41;5172385;27;20420;-50
2022/10/17 04:43:13;;;;;;;49.53;17.27;;;;;;;11.55;100.00;100196.56;5171894;27;20053;-53
2022/10/17 04:45:40;;;;;;;23.15;15.82;;;;;;;11.89;100.00;100229.38;5172270;27;20425;-51
2022/10/17 04:48:07;;;;;;;27.25;16.65;;;;;;;12.15;100.00;100151.97;5171866;27;20050;-50
2022/10/17 04:50:33;;;;;;;23.67;16.08;;;;;;;12.22;100.00;100110.94;5171769;27;20085;-50
2022/10/17 04:52:59;;;;;;;30.88;17.17;;;;;;;12.10;100.00;100098.06;5171810;27;20046;-50
2022/10/17 04:55:25;;;;;;;28.27;17.90;;;;;;;12.01;100.00;100149.63;5171533;27;20391;-54
2022/10/17 04:57:51;;;;;;;35.15;17.98;;;;;;;12.10;100.00;100139.28;5172107;27;20133;-50
2022/10/17 05:00:18;;;;;;;32.83;18.25;;;;;;;12.10;100.00;100146.75;5171933;27;20532;-50
2022/10/17 05:02:44;;;;;;;31.77;16.83;;;;;;;12.32;100.00;100142.59;5171633;27;20087;-50
2022/10/17 05:05:11;;;;;;;31.83;16.80;;;;;;;12.39;100.00;100093.28;5171519;27;20111;-52
2022/10/17 05:07:39;;;;;;;32.35;16.10;;;;;;;12.41;100.00;100086.28;5171821;27;20061;-50
2022/10/17 05:10:07;;;;;;;35.65;19.58;;;;;;;12.38;100.00;100072.44;5175178;27;20136;-51
2022/10/17 05:12:33;;;;;;;33.08;17.25;;;;;;;12.39;100.00;100085.84;5175116;27;20046;-50
2022/10/17 05:14:59;;;;;;;32.47;16.80;;;;;;;12.45;100.00;100108.38;5175203;27;20394;-50
2022/10/17 05:17:26;;;;;;;31.95;15.10;;;;;;;12.32;100.00;100117.88;5175275;27;20077;-50
2022/10/17 05:19:52;;;;;;;34.70;16.38;;;;;;;12.42;100.00;100164.09;5175132;27;20081;-49
2022/10/17 05:22:19;;;;;;;42.85;17.48;;;;;;;12.27;100.00;100116.19;5175144;27;20489;-50
2022/10/17 05:24:45;;;;;;;32.75;16.45;;;;;;;12.19;100.00;100167.41;5174998;27;20061;-51
2022/10/17 05:27:11;;;;;;;35.40;15.63;;;;;;;12.25;100.00;100226.50;5175056;27;20082;-49
2022/10/17 05:29:38;;;;;;;32.40;12.63;;;;;;;12.18;100.00;100231.00;5175354;27;20406;-49
2022/10/17 05:32:05;;;;;;;21.40;12.27;;;;;;;12.39;100.00;100288.53;5174967;27;20050;-50
2022/10/17 05:34:32;;;;;;;33.78;13.50;;;;;;;12.66;100.00;100218.97;5174929;27;20054;-51
2022/10/17 05:36:59;;;;;;;42.47;14.98;;;;;;;12.54;100.00;100171.47;5174675;27;20531;-50
2022/10/17 05:39:26;;;;;;;32.42;15.20;;;;;;;12.29;100.00;100223.03;5174931;27;20085;-50
2022/10/17 05:41:53;;;;;;;38.08;15.45;;;;;;;12.50;100.00;100231.91;5174673;27;20046;-54
2022/10/17 05:44:19;;;;;;;37.05;17.45;;;;;;;12.61;100.00;100169.69;5174615;27;20050;-52
2022/10/17 05:46:47;;;;;;;35.35;16.30;;;;;;;12.87;100.00;100149.91;5174366;27;20133;-46
2022/10/17 05:49:13;;;;;;;27.85;13.82;;;;;;;13.10;100.00;100081.25;5174619;27;20133;-50
2022/10/17 05:51:40;;;;;;;31.50;14.85;;;;;;;13.00;100.00;100025.97;5174510;27;20554;-52
2022/10/17 05:54:06;;;;;;;37.20;14.10;;;;;;;13.07;100.00;100059.94;5174567;27;20042;-57
2022/10/17 05:56:33;;;;;;;40.40;13.63;;;;;;;13.24;100.00;100038.66;5174456;27;20122;-55
2022/10/17 05:59:00;;;;;;;33.05;14.85;;;;;;;13.15;100.00;100025.09;5173318;27;20537;-61
2022/10/17 06:01:27;;;;;;;31.15;14.88;;;;;;;13.10;100.00;100022.63;5173312;27;20053;-58
2022/10/17 06:03:53;;;;;;;31.55;15.70;;;;;;;12.93;100.00;100085.19;5174242;27;20050;-57
2022/10/17 06:06:19;;;;;;;28.58;14.85;;;;;;;13.07;100.00;100123.25;5174144;27;20054;-56
2022/10/17 06:08:45;;;;;;;28.38;13.40;;;;;;;12.92;100.00;100160.63;5174230;27;20098;-57
2022/10/17 06:11:12;;;;;;;34.97;14.40;;;;;;;13.03;100.00;100173.84;5174253;27;20082;-55
2022/10/17 06:13:39;;;;;;;30.30;13.48;;;;;;;13.18;100.00;100157.31;5174040;27;20091;-59
2022/10/17 06:16:06;;;;;;;47.00;15.77;;;;;;;13.28;100.00;100127.69;5173961;27;20054;-57
2022/10/17 06:18:33;;;;;;;29.70;13.07;;;;;;;13.38;100.00;100116.09;5173990;27;20042;-58
2022/10/17 06:21:02;;;;;;;32.05;12.60;;;;;;;13.33;100.00;100103.41;5173179;27;20097;-59
2022/10/17 06:23:29;;;;;;;22.27;9.35;;;;;;;13.15;100.00;100115.94;5174270;27;20128;-61
2022/10/17 06:25:58;;;;;;;28.30;10.57;;;;;;;13.45;100.00;100143.00;5173676;27;20082;-56
2022/10/17 06:28:24;;;;;;;22.63;10.52;;;;;;;13.45;100.00;100110.72;5173712;27;20462;-58
2022/10/17 06:30:51;;;;;;;18.48;10.45;;;;;;;13.47;100.00;100083.63;5173837;27;20085;-56
2022/10/17 06:33:17;;;;;;;14.88;9.38;;;;;;;13.52;100.00;100066.81;5173721;27;20501;-54
2022/10/17 06:35:49;;;;;;;16.35;9.77;;;;;;;13.43;100.00;100091.03;5173788;27;20046;-57
2022/10/17 06:38:16;;;;;;;19.33;9.85;;;;;;;13.49;100.00;100121.81;5173896;27;20054;-56
2022/10/17 06:40:42;;;;;;;21.80;10.57;;;;;;;13.47;100.00;100130.47;5173650;27;20050;-57
2022/10/17 06:43:08;;;;;;;28.38;10.02;;;;;;;13.43;100.00;100102.06;5173606;27;20087;-57
2022/10/17 06:45:34;;;;;;;17.90;9.18;;;;;;;13.67;100.00;100113.94;5173926;27;20054;-55
2022/10/17 06:48:02;;;;;;;18.20;10.55;;;;;;;13.65;100.00;100097.75;5173439;27;20078;-59
2022/10/17 06:50:28;;;;;;;25.88;12.48;;;;;;;13.70;100.00;100122.28;5174010;27;20085;-57
2022/10/17 06:52:54;;;;;;;23.85;10.52;;;;;;;13.75;100.00;100115.69;5173457;27;20054;-54
2022/10/17 06:55:20;;;;;;;17.48;9.02;;;;;;;13.78;100.00;100131.50;5173217;27;20103;-56
2022/10/17 06:57:47;;;;;;;18.85;9.45;;;;;;;13.82;100.00;100159.91;5173598;27;20489;-55
2022/10/17 07:00:13;;;;;;;26.45;15.23;;;;;;;13.84;100.00;100185.97;5173514;27;20058;-54
2022/10/17 07:02:39;;;;;;;19.05;9.85;;;;;;;14.00;100.00;100176.84;5173336;27;20402;-54
2022/10/17 07:05:07;;;;;;;21.52;9.32;;;;;;;13.95;100.00;100168.84;5173286;27;20551;-57
2022/10/17 07:07:33;;;;;;;22.90;10.07;;;;;;;14.11;100.00;100197.94;5173226;27;20092;-57
2022/10/17 07:09:59;;;;;;;26.15;11.48;;;;;;;14.12;100.00;100165.63;5173154;27;20561;-58
2022/10/17 07:12:25;;;;;;;26.70;10.15;;;;;;;14.11;100.00;100181.38;5173147;27;20145;-59
2022/10/17 07:14:52;;;;;;;28.88;11.93;;;;;;;14.20;100.00;100219.00;5172943;27;20046;-56
2022/10/17 07:17:18;;;;;;;20.48;10.32;;;;;;;14.38;100.00;100206.34;5173503;27;20046;-56
2022/10/17 07:19:45;;;;;;;26.00;10.43;;;;;;;14.28;100.00;100204.97;5172867;27;20073;-53
2022/10/17 07:22:12;;;;;;;21.65;10.68;;;;;;;14.25;100.00;100246.25;5173505;27;20106;-59
2022/10/17 07:24:38;;;;;;;37.67;11.82;;;;;;;14.39;100.00;100260.34;5173094;27;20470;-58
2022/10/17 07:27:04;;;;;;;27.15;11.25;;;;;;;14.37;100.00;100315.09;5173209;27;20042;-53
2022/10/17 07:29:30;;;;;;;20.67;12.40;;;;;;;14.65;100.00;100269.94;5173321;27;20469;-58
2022/10/17 07:31:57;;;;;;;23.00;11.05;;;;;;;14.54;100.00;100253.97;5171802;27;20046;-56
2022/10/17 07:34:26;;;;;;;27.88;10.73;;;;;;;14.63;100.00;100244.66;5172788;27;20057;-52
2022/10/17 07:36:52;;;;;;;23.90;11.55;;;;;;;14.67;100.00;100273.13;5172991;27;20505;-53
2022/10/17 07:39:19;;;;;;;24.42;10.63;;;;;;;14.63;100.00;100255.69;5173217;27;20046;-54
2022/10/17 07:41:46;;;;;;;30.58;11.80;;;;;;;14.76;100.00;100249.66;5172884;27;20043;-53
2022/10/17 07:44:14;;;;;;;28.48;12.00;;;;;;;14.97;100.00;100240.16;5173284;27;20390;-53
2022/10/17 07:46:40;;;;;;;21.50;11.57;;;;;;;15.00;100.00;100198.00;5172625;27;20043;-57
2022/10/17 07:49:06;;;;;;;24.58;11.50;;;;;;;15.01;100.00;100216.94;5173189;27;20058;-54
2022/10/17 07:51:32;;;;;;;29.92;11.40;;;;;;;15.15;100.00;100201.78;5172366;27;20144;-54
2022/10/17 07:53:59;;;;;;;29.02;12.30;;;;;;;15.30;100.00;100160.19;5172885;27;20085;-53
2022/10/17 07:56:25;;;;;;;26.73;12.10;;;;;;;15.18;100.00;100132.00;5172289;27;20516;-52
2022/10/17 07:58:52;;;;;;;24.00;11.70;;;;;;;15.10;100.00;100146.88;5172565;27;20050;-56
2022/10/17 08:01:18;;;;;;;24.15;11.77;;;;;;;15.23;100.00;100170.34;5172432;27;20092;-55
2022/10/17 08:03:47;;;;;;;25.70;11.90;;;;;;;15.32;100.00;100159.03;5172597;27;20054;-58
2022/10/17 08:06:14;;;;;;;26.40;11.43;;;;;;;15.33;100.00;100180.75;5172266;27;20056;-56
2022/10/17 08:08:41;;;;;;;22.27;12.40;;;;;;;15.27;100.00;100172.00;5172133;27;20054;-57
2022/10/17 08:11:09;;;;;;;26.58;12.40;;;;;;;15.61;100.00;100158.25;5172508;27;20485;-61
2022/10/17 08:13:37;;;;;;;27.25;11.65;;;;;;;15.85;100.00;100032.56;5172266;27;20095;-59
2022/10/17 08:16:06;;;;;;;22.08;11.80;;;;;;;15.86;100.00;100033.38;5172592;27;20050;-58
2022/10/17 08:18:33;;;;;;;29.92;13.85;;;;;;;15.67;100.00;100020.53;5171968;27;20074;-58
2022/10/17 08:20:59;;;;;;;33.42;15.40;;;;;;;15.87;100.00;100068.94;5172369;27;20074;-59
2022/10/17 08:23:26;;;;;;;36.95;18.98;;;;;;;15.90;100.00;100004.59;5172316;27;20050;-59
2022/10/17 08:25:52;;;;;;;36.25;18.35;;;;;;;15.97;100.00;100048.91;5172402;27;20378;-58
2022/10/17 08:28:18;;;;;;;33.85;16.90;;;;;;;16.25;100.00;99995.00;5172291;27;20115;-60
2022/10/17 08:30:45;;;;;;;31.27;14.45;;;;;;;16.31;100.00;99935.38;5172228;27;20050;-59
2022/10/17 08:33:11;;;;;;;26.80;14.65;;;;;;;16.40;100.00;99971.03;5172186;27;20046;-60
2022/10/17 08:35:37;;;;;;;31.98;14.23;;;;;;;16.50;100.00;99959.22;5171802;27;20421;-58
2022/10/17 08:38:04;;;;;;;34.08;14.65;;;;;;;16.61;100.00;99939.91;5171834;27;20046;-59
2022/10/17 08:40:32;;;;;;;32.42;14.55;;;;;;;16.44;100.00;99975.41;5171797;27;20077;-59
2022/10/17 08:43:27;;;;;;;29.33;13.27;;;;;;;16.24;100.00;99947.19;5172327;27;20057;-59
2022/10/17 08:45:59;;;;;;;29.30;15.60;;;;;;;16.55;100.00;99991.28;5173271;27;20095;-58
2022/10/17 08:48:28;;;;;;;31.02;13.85;;;;;;;16.41;100.00;99978.13;5175535;27;20098;-58
2022/10/17 08:50:58;;;;;;;26.25;14.20;;;;;;;16.53;100.00;99996.41;5175749;27;20140;-59
2022/10/17 08:53:29;;;;;;;36.25;14.65;;;;;;;16.49;100.00;99965.94;5175283;27;20097;-59
2022/10/17 08:55:59;;;;;;;29.92;14.80;;;;;;;16.60;100.00;100035.22;5175738;27;20461;-59
2022/10/17 08:58:28;;;;;;;29.08;13.60;;;;;;;16.64;100.00;100045.13;5175739;27;20572;-59
2022/10/17 09:01:04;;;;;;;27.13;14.38;;;;;;;16.86;100.00;99942.84;5175444;27;20072;-59
2022/10/17 09:03:44;;;;;;;26.65;14.02;;;;;;;16.96;100.00;99944.06;5175097;27;20060;-59
2022/10/17 09:06:28;;;;;;;28.42;14.90;;;;;;;17.73;100.00;99859.53;5175542;27;20073;-61
2022/10/17 09:09:10;;;;;;;27.13;13.70;;;;;;;18.06;100.00;99713.25;5175875;27;20813;-60
2022/10/17 09:11:53;;;;;;;31.48;13.32;;;;;;;18.69;100.00;99491.97;5175083;27;20119;-60
2022/10/17 09:14:50;;;;;;;25.27;12.82;;;;;;;18.16;100.00;99528.50;5175211;27;20043;-61
2022/10/17 09:17:28;;;;;;;25.80;13.43;;;;;;;18.18;100.00;99567.75;5168184;27;20050;-59
2022/10/17 09:20:01;;;;;;;29.60;14.90;;;;;;;18.11;100.00;99610.19;5175171;27;20046;-61
2022/10/17 09:22:33;;;;;;;33.05;13.73;;;;;;;18.43;100.00;99521.16;5175245;27;20179;-58
2022/10/17 09:25:02;;;;;;;32.67;13.88;;;;;;;18.14;100.00;99569.75;5174964;27;20589;-61
2022/10/17 09:27:35;;;;;;;28.00;14.43;;;;;;;18.32;100.00;99559.31;5175223;27;20169;-61
2022/10/17 09:30:22;;;;;;;27.80;13.38;;;;;;;18.62;100.00;99519.78;5174893;27;20051;-61
2022/10/17 09:32:50;;;;;;;25.67;13.40;;;;;;;18.47;100.00;99476.72;5174817;27;20054;-62
2022/10/17 09:35:17;;;;;;;29.17;13.63;;;;;;;18.75;100.00;99495.91;5174807;27;20054;-63
2022/10/17 09:37:44;;;;;;;27.13;13.50;;;;;;;18.82;100.00;99458.94;5174999;27;20061;-58
2022/10/17 09:40:19;;;;;;;31.05;14.07;;;;;;;19.10;100.00;99418.94;5174784;27;20073;-60
2022/10/17 09:42:49;;;;;;;29.30;15.20;;;;;;;19.06;100.00;99354.28;5174428;27;20626;-61
2022/10/17 09:45:18;;;;;;;25.92;13.65;;;;;;;19.22;100.00;99317.50;5174930;27;20050;-62
2022/10/17 09:47:51;;;;;;;28.80;13.52;;;;;;;19.36;100.00;99341.53;5174511;27;20053;-62
2022/10/17 09:50:23;;;;;;;25.58;13.52;;;;;;;19.05;100.00;99336.00;5174765;27;20054;-61
2022/10/17 09:52:49;;;;;;;26.48;13.63;;;;;;;18.98;100.00;99384.13;5174456;27;20106;-62
2022/10/17 09:55:19;;;;;;;30.77;13.55;;;;;;;18.92;100.00;99408.00;5173387;27;20050;-64
2022/10/17 09:57:54;;;;;;;21.08;11.60;;;;;;;19.43;100.00;99333.88;5174370;27;20070;-63
2022/10/17 10:00:23;;;;;;;28.17;12.88;;;;;;;19.92;100.00;99283.44;5174639;27;20417;-64
2022/10/17 10:02:49;;;;;;;24.50;13.18;;;;;;;19.72;100.00;99261.91;5174795;27;20042;-63
2022/10/17 10:05:17;;;;;;;25.73;18.15;;;;;;;20.22;100.00;99247.06;5174664;27;20077;-64
2022/10/17 10:07:59;;;;;;;20.70;12.68;;;;;;;20.20;100.00;99216.09;5174748;27;20108;-63
2022/10/17 10:10:28;;;;;;;23.40;12.23;;;;;;;19.79;100.00;99224.06;5173998;27;20058;-63
2022/10/17 10:13:05;;;;;;;28.33;12.32;;;;;;;20.02;100.00;99220.44;5174511;27;20049;-62
2022/10/17 10:15:36;;;;;;;25.83;12.70;;;;;;;19.75;100.00;99227.69;5173912;27;20386;-62
2022/10/17 10:18:03;;;;;;;18.08;12.13;;;;;;;19.79;100.00;99241.53;5174083;27;20050;-62
2022/10/17 10:20:33;;;;;;;23.70;13.00;;;;;;;19.81;100.00;99225.22;5174169;27;20432;-62
2022/10/17 10:23:12;;;;;;;26.05;13.10;;;;;;;19.24;100.00;99262.31;5173622;27;20093;-62
2022/10/17 10:25:50;;;;;;;36.13;12.15;;;;;;;19.96;100.00;99214.59;5174013;27;20081;-63
2022/10/17 10:28:17;;;;;;;24.60;11.95;;;;;;;20.34;100.00;99184.38;5174099;27;20417;-62
2022/10/17 10:30:47;;;;;;;19.20;11.93;;;;;;;20.46;100.00;99188.53;5173793;27;20073;-62
2022/10/17 10:33:13;;;;;;;22.63;12.32;;;;;;;20.78;100.00;99192.59;5173767;27;20548;-62
2022/10/17 10:35:40;;;;;;;25.48;11.95;;;;;;;20.62;100.00;99205.28;5174052;27;20490;-62
2022/10/17 10:38:13;;;;;;;23.88;11.65;;;;;;;20.91;100.00;99216.56;5174036;27;20535;-62
2022/10/17 10:40:46;;;;;;;20.13;10.30;;;;;;;20.83;100.00;99217.97;5173590;27;20513;-61
2022/10/17 10:43:22;;;;;;;20.10;10.80;;;;;;;20.55;100.00;99211.00;5173308;27;20054;-57
2022/10/17 10:45:49;;;;;;;19.75;10.60;;;;;;;20.42;100.00;99219.19;5173504;27;20288;-58
2022/10/17 10:48:21;;;;;;;19.27;10.70;;;;;;;20.98;100.00;99212.81;5171568;27;20042;-58
2022/10/17 10:50:49;;;;;;;17.88;11.45;;;;;;;21.06;100.00;99208.66;5173404;27;20520;-60
2022/10/17 10:53:30;;;;;;;19.02;11.02;;;;;;;20.77;100.00;99211.31;5173329;27;20042;-62
2022/10/17 10:56:00;;;;;;;24.33;14.43;;;;;;;21.14;100.00;99209.25;5173354;27;20081;-62
2022/10/17 10:58:38;;;;;;;20.95;10.95;;;;;;;20.86;100.00;99221.88;5173146;27;20583;-64
2022/10/17 11:01:10;;;;;;;19.42;9.73;;;;;;;20.83;100.00;99204.03;5173409;27;20053;-59
2022/10/17 11:03:41;;;;;;;19.52;14.05;;;;;;;20.37;100.00;99214.16;5173233;27;20054;-61
2022/10/17 11:06:15;;;;;;;19.60;10.27;;;;;;;19.83;100.00;99196.97;5173235;27;20053;-60
2022/10/17 11:08:45;;;;;;;;;;;;;;;19.44;100.00;99196.44;5173597;27;20111;-61
2022/10/17 11:11:18;;;;;;;14.63;9.45;;;;;;;20.26;100.00;99191.34;5173341;27;19927;-62
2022/10/17 11:13:48;;;;;;;14.10;9.25;;;;;;;20.10;100.00;99203.19;5172965;27;20501;-62
2022/10/17 11:16:25;;;;;;;23.27;9.48;;;;;;;20.17;100.00;99197.47;5172967;27;20047;-63
2022/10/17 11:18:57;;;;;;;13.02;8.07;;;;;;;20.07;100.00;99200.47;5172779;27;20042;-60